| time (UTC) | temp F | wind direction | speed knots | gust knots | rain 1hr in | rain 24hr in | rain mn in | humidity % | barometer mb |
| 20260505064620 | 40 | 277 | 0.0 | 0.9 | 0.00 | 0.00 | 0.00 | 71 | 1011.0 |
| 20260505063643 | 41 | 277 | 0.9 | 1.7 | 0.00 | 0.00 | 0.00 | 69 | 1011.0 |
| 20260505062626 | 41 | 277 | 0.0 | 0.9 | 0.00 | 0.00 | 0.00 | 67 | 1011.0 |
| 20260505061628 | 41 | 277 | 0.0 | 0.0 | 0.00 | 0.00 | 0.00 | 67 | 1011.0 |
| 20260505060628 | 41 | 277 | 0.0 | 0.0 | 0.00 | 0.00 | 0.00 | 66 | 1011.1 |
| 20260505055635 | 41 | 277 | 0.0 | 0.0 | 0.00 | 0.00 | 0.00 | 67 | 1011.1 |
| 20260505054617 | 41 | 277 | 0.0 | 1.7 | 0.00 | 0.00 | 0.00 | 66 | 1011.1 |
| 20260505053620 | 41 | 277 | 0.0 | 0.9 | 0.00 | 0.00 | 0.00 | 66 | 1011.2 |
| 20260505052641 | 41 | 277 | 0.9 | 1.7 | 0.00 | 0.00 | 0.00 | 65 | 1011.1 |
| 20260505051639 | 42 | 277 | 0.9 | 2.6 | 0.00 | 0.00 | 0.00 | 63 | 1011.2 |
| 20260505050625 | 43 | 277 | 0.9 | 2.6 | 0.00 | 0.00 | 0.00 | 61 | 1011.2 |
| 20260505041622 | 44 | 277 | 0.0 | 0.9 | 0.00 | 0.00 | 0.00 | 58 | 1010.9 |
| 20260505040627 | 45 | 277 | 0.0 | 1.7 | 0.00 | 0.00 | 0.00 | 57 | 1010.9 |
| 20260505035630 | 45 | 277 | 0.9 | 1.7 | 0.00 | 0.00 | 0.00 | 56 | 1010.9 |
| 20260505034634 | 45 | 277 | 0.9 | 1.7 | 0.00 | 0.00 | 0.00 | 55 | 1010.8 |
| 20260505033633 | 45 | 277 | 0.9 | 1.7 | 0.00 | 0.00 | 0.00 | 53 | 1010.7 |
| 20260505032620 | 46 | 277 | 0.9 | 2.6 | 0.00 | 0.00 | 0.00 | 53 | 1010.7 |
| 20260505031624 | 47 | 277 | 0.0 | 0.9 | 0.00 | 0.00 | 0.00 | 50 | 1010.5 |
| 20260505030626 | 48 | 277 | 0.0 | 0.0 | 0.00 | 0.00 | 0.00 | 48 | 1010.3 |
| 20260505025627 | 49 | 277 | 0.0 | 0.0 | 0.00 | 0.00 | 0.00 | 45 | 1010.3 |
| 20260505024630 | 50 | 277 | 0.0 | 0.9 | 0.00 | 0.00 | 0.00 | 42 | 1010.1 |
| 20260505023653 | 51 | 277 | 0.0 | 0.9 | 0.00 | 0.00 | 0.00 | 42 | 1010.1 |
| 20260505022656 | 52 | 277 | 0.0 | 1.7 | 0.00 | 0.00 | 0.00 | 41 | 1010.0 |
| 20260505021638 | 53 | 277 | 0.9 | 0.9 | 0.00 | 0.00 | 0.00 | 39 | 1009.9 |
| 20260505020622 | 53 | 277 | 0.0 | 3.5 | 0.00 | 0.00 | 0.00 | 39 | 1009.8 |
| 20260505015643 | 54 | 276 | 2.6 | 6.1 | 0.00 | 0.00 | 0.00 | 36 | 1009.8 |
| 20260505014624 | 56 | 261 | 1.7 | 5.2 | 0.00 | 0.00 | 0.00 | 35 | 1009.7 |
| 20260505013631 | 56 | 261 | 3.5 | 6.1 | 0.00 | 0.00 | 0.00 | 33 | 1009.7 |
| 20260505012633 | 55 | 251 | 1.7 | 4.3 | 0.00 | 0.00 | 0.00 | 39 | 1009.8 |
| 20260505011616 | 54 | 248 | 3.5 | 6.1 | 0.00 | 0.00 | 0.00 | 42 | 1009.8 |
| 20260505010625 | 53 | 245 | 4.3 | 7.0 | 0.00 | 0.00 | 0.00 | 43 | 1009.9 |
| 20260505005626 | 51 | 271 | 3.5 | 6.1 | 0.00 | 0.00 | 0.00 | 45 | 1010.0 |
| 20260505004633 | 51 | 265 | 4.3 | 9.6 | 0.00 | 0.00 | 0.00 | 45 | 1010.2 |
| 20260505003617 | 52 | 279 | 6.1 | 9.6 | 0.00 | 0.00 | 0.00 | 44 | 1010.3 |
| 20260505002622 | 53 | 286 | 5.2 | 10.4 | 0.00 | 0.00 | 0.00 | 43 | 1010.4 |
| 20260505001629 | 56 | 250 | 3.5 | 21.7 | 0.00 | 0.00 | 0.00 | 39 | 1010.4 |
| 20260505000620 | 59 | 295 | 7.8 | 12.2 | 0.00 | 0.00 | 0.00 | 33 | 1010.0 |
| 20260504235620 | 59 | 279 | 7.0 | 12.2 | 0.00 | 0.00 | 0.00 | 32 | 1010.0 |
| 20260504234622 | 61 | 296 | 6.1 | 11.3 | 0.00 | 0.00 | 0.00 | 32 | 1009.8 |
| 20260504233627 | 61 | 329 | 7.0 | 11.3 | 0.00 | 0.00 | 0.00 | 29 | 1009.8 |
| 20260504232655 | 61 | 275 | 7.8 | 12.2 | 0.00 | 0.00 | 0.00 | 26 | 1009.8 |
| 20260504231617 | 60 | 244 | 4.3 | 9.6 | 0.00 | 0.00 | 0.00 | 24 | 1009.8 |
| 20260504230618 | 61 | 239 | 3.5 | 12.2 | 0.00 | 0.00 | 0.00 | 22 | 1009.8 |
| 20260504225622 | 62 | 262 | 7.8 | 13.9 | 0.00 | 0.00 | 0.00 | 23 | 1009.7 |
| 20260504224630 | 61 | 294 | 1.7 | 8.7 | 0.00 | 0.00 | 0.00 | 23 | 1009.9 |
| 20260504223634 | 62 | 284 | 6.1 | 9.6 | 0.00 | 0.00 | 0.00 | 22 | 1009.9 |
| 20260504222617 | 62 | 267 | 2.6 | 8.7 | 0.00 | 0.00 | 0.00 | 22 | 1010.0 |
| 20260504221618 | 63 | 262 | 6.1 | 9.6 | 0.00 | 0.00 | 0.00 | 22 | 1010.1 |
| 20260504220624 | 64 | 275 | 2.6 | 7.0 | 0.00 | 0.00 | 0.00 | 20 | 1010.2 |
| 20260504215626 | 63 | 132 | 0.9 | 2.6 | 0.00 | 0.00 | 0.00 | 21 | 1010.3 |
| 20260504214630 | 63 | 296 | 3.5 | 11.3 | 0.00 | 0.00 | 0.00 | 24 | 1010.6 |
| 20260504213632 | 62 | 257 | 2.6 | 14.8 | 0.00 | 0.00 | 0.00 | 24 | 1010.6 |
| 20260504212636 | 61 | 288 | 7.0 | 10.4 | 0.00 | 0.00 | 0.00 | 26 | 1010.8 |
| 20260504211623 | 61 | 290 | 7.0 | 11.3 | 0.00 | 0.00 | 0.00 | 25 | 1010.9 |
| 20260504210625 | 60 | 309 | 3.5 | 10.4 | 0.00 | 0.00 | 0.00 | 25 | 1011.0 |
| 20260504205627 | 58 | 275 | 5.2 | 8.7 | 0.00 | 0.00 | 0.00 | 27 | 1011.1 |
| 20260504204630 | 58 | 290 | 2.6 | 6.1 | 0.00 | 0.00 | 0.00 | 26 | 1011.1 |
| 20260504203639 | 59 | 276 | 4.3 | 7.8 | 0.00 | 0.00 | 0.00 | 24 | 1011.2 |
| 20260504202643 | 59 | 271 | 4.3 | 7.8 | 0.00 | 0.00 | 0.00 | 24 | 1011.2 |
| 20260504201625 | 61 | 290 | 4.3 | 10.4 | 0.00 | 0.00 | 0.00 | 24 | 1011.3 |
| 20260504200627 | 61 | 277 | 4.3 | 8.7 | 0.00 | 0.00 | 0.00 | 26 | 1011.5 |
| 20260504195633 | 61 | 246 | 1.7 | 8.7 | 0.00 | 0.00 | 0.00 | 29 | 1011.6 |
| 20260504194617 | 58 | 273 | 3.5 | 7.8 | 0.00 | 0.00 | 0.00 | 30 | 1011.6 |
| 20260504193619 | 57 | 264 | 1.7 | 7.8 | 0.00 | 0.00 | 0.00 | 29 | 1011.7 |
| 20260504192642 | 56 | 237 | 2.6 | 7.8 | 0.00 | 0.00 | 0.00 | 30 | 1011.8 |
| 20260504191626 | 55 | 345 | 0.9 | 3.5 | 0.00 | 0.00 | 0.00 | 31 | 1011.9 |
| 20260504190630 | 55 | 286 | 4.3 | 8.7 | 0.00 | 0.00 | 0.00 | 30 | 1012.1 |
| 20260504185617 | 56 | 254 | 3.5 | 7.8 | 0.00 | 0.00 | 0.00 | 29 | 1012.1 |
| 20260504184618 | 57 | 280 | 3.5 | 9.6 | 0.00 | 0.00 | 0.00 | 30 | 1012.2 |
| 20260504183622 | 57 | 270 | 4.3 | 10.4 | 0.00 | 0.00 | 0.00 | 31 | 1012.2 |
| 20260504182628 | 55 | 295 | 0.9 | 6.1 | 0.00 | 0.00 | 0.00 | 33 | 1012.4 |
| 20260504181618 | 55 | 263 | 1.7 | 7.0 | 0.00 | 0.00 | 0.00 | 31 | 1012.4 |
| 20260504180651 | 56 | 273 | 4.3 | 7.8 | 0.00 | 0.00 | 0.00 | 30 | 1012.6 |
| 20260504175633 | 58 | 283 | 5.2 | 10.4 | 0.00 | 0.00 | 0.00 | 29 | 1012.5 |
| 20260504174634 | 57 | 290 | 2.6 | 5.2 | 0.00 | 0.00 | 0.00 | 32 | 1012.6 |
| 20260504173619 | 58 | 253 | 7.0 | 11.3 | 0.00 | 0.00 | 0.00 | 30 | 1012.6 |
| 20260504172622 | 58 | 258 | 3.5 | 8.7 | 0.00 | 0.00 | 0.00 | 32 | 1012.6 |
| 20260504171631 | 57 | 265 | 1.7 | 9.6 | 0.00 | 0.00 | 0.00 | 33 | 1012.6 |
| 20260504170636 | 57 | 236 | 6.1 | 11.3 | 0.00 | 0.00 | 0.00 | 33 | 1012.7 |
| 20260504150624 | 51 | 290 | 2.6 | 7.0 | 0.00 | 0.00 | 0.00 | 39 | 1012.9 |
| 20260504140630 | 39 | 287 | 0.9 | 2.6 | 0.00 | 0.00 | 0.00 | 63 | 1013.2 |